CheckWX is a tool to help pilots better visualize weather data.  It is not intended as a substitute for an official pre-flight weather briefing.

06:36:09 UTC

KMUO TAF
Mountain Home AFB Airport
Mountain Home, Idaho, USA
TAF AMD KMUO 310000Z 3100/3124 19009KT 9999 VCSH SCT050 BKN080 OVC110 610406 510009 QNH3000INS TEMPO 3100/3103 20015G25KT 9000 -SHRA BKN040 BECMG 3107/3108 11010G15KT 6000 -RA SCT020 OVC030 620308 QNH2997INS BECMG 3114/3115 34010G15KT 4800 -RA SCT010 OVC020 620209 QNH2994INS BECMG 3118/3119 34015G25KT 8000 -SHRA SCT015 BKN030 OVC090 620307 510009 QNH2990INS TX12/3100Z TN04/3112Z LAST NO AMDS AFT 3100 NEXT 0110

Mar-31@
00:00 UTC

Mar-31 @ 00:00 UTC

Mar-31@
07:00 UTC

Mar-31 @ 07:00 UTC

TAF AMD KMUO 310000Z 3100/3124 19009KT 9999 VCSH SCT050 BKN080 OVC110 610406 510009 QNH3000INS
Wind
  • 190° at 9 KTS
Conditions
Area Showers
Cloud Levels
  • Scattered at 5,000' AGL
  • Broken at 8,000' AGL
  • Overcast at 11,000' AGL

Mar-31@
00:00 UTC

Mar-31 @ 00:00 UTC

Mar-31@
03:00 UTC

Mar-31 @ 03:00 UTC

TEMPO 3100/3103 20015G25KT 9000 -SHRA BKN040

Expired

Wind
  • 200° at 15 KTS
  • {Gusting to 25 KTS
Conditions
Light Showers, Rain
Cloud Levels
  • Broken at 4,000' AGL

Mar-31@
07:00 UTC

Mar-31 @ 07:00 UTC

Mar-31@
14:00 UTC

Mar-31 @ 14:00 UTC

BECMG 3107/3108 11010G15KT 6000 -RA SCT020 OVC030 620308 QNH2997INS

Becoming

Becoming Conditions expected by Tue, Mar 31, 2020 @ 08:00 UTC

Wind
  • 110° at 10 KTS
  • {Gusting to 15 KTS
Conditions
Light Rain
Cloud Levels
  • Scattered at 2,000' AGL
  • Overcast at 3,000' AGL

Mar-31@
14:00 UTC

Mar-31 @ 14:00 UTC

Mar-31@
18:00 UTC

Mar-31 @ 18:00 UTC

BECMG 3114/3115 34010G15KT 4800 -RA SCT010 OVC020 620209 QNH2994INS

Becoming

Becoming Conditions expected by Tue, Mar 31, 2020 @ 15:00 UTC

Wind
  • 340° at 10 KTS
  • {Gusting to 15 KTS
Conditions
Light Rain
Cloud Levels
  • Scattered at 1,000' AGL
  • Overcast at 2,000' AGL

Mar-31@
18:00 UTC

Mar-31 @ 18:00 UTC

Apr-1@
00:00 UTC

Apr-1 @ 00:00 UTC

BECMG 3118/3119 34015G25KT 8000 -SHRA SCT015 BKN030 OVC090 620307 510009 QNH2990INS TX12/3100Z TN04/3112Z LAST NO AMDS AFT 3100 NEXT 0110

Becoming

Becoming Conditions expected by Tue, Mar 31, 2020 @ 19:00 UTC

Wind
  • 340° at 15 KTS
  • {Gusting to 25 KTS
Conditions
Light Showers, Rain
Cloud Levels
  • Scattered at 1,500' AGL
  • Broken at 3,000' AGL
  • Overcast at 9,000' AGL